createdAt,value
2023-04-15T00:02:24.654Z,74.37
2023-04-15T00:04:53.390Z,74.95
2023-04-15T00:07:21.983Z,75.00
2023-04-15T00:09:55.038Z,76.08
2023-04-15T00:12:23.650Z,76.38
2023-04-15T00:14:52.266Z,76.44
2023-04-15T00:17:21.258Z,76.09
2023-04-15T00:19:49.878Z,76.56
2023-04-15T00:22:18.720Z,77.10
2023-04-15T00:24:47.338Z,76.48
2023-04-15T00:27:17.265Z,76.88
2023-04-15T00:29:45.902Z,77.61
2023-04-15T00:32:14.544Z,77.70
2023-04-15T00:34:43.405Z,77.98
2023-04-15T00:37:12.569Z,78.30
2023-04-15T00:39:41.234Z,78.27
2023-04-15T00:42:10.567Z,79.39
2023-04-15T00:44:40.989Z,79.58
2023-04-15T00:47:10.046Z,79.13
2023-04-15T00:49:38.666Z,79.06
2023-04-15T00:52:07.309Z,79.10
2023-04-15T00:54:36.406Z,79.48
2023-04-15T00:57:06.715Z,80.09
2023-04-15T00:59:35.597Z,80.53
2023-04-15T01:02:05.843Z,80.75
2023-04-15T01:04:34.541Z,81.31
2023-04-15T01:07:03.388Z,81.84
2023-04-15T01:09:32.134Z,81.57
2023-04-15T01:12:00.749Z,81.18
2023-04-15T01:14:30.180Z,81.42
2023-04-15T01:16:58.900Z,82.03
2023-04-15T01:19:28.959Z,82.69
2023-04-15T01:21:57.555Z,82.29
2023-04-15T01:24:27.904Z,81.90
2023-04-15T01:26:58.471Z,82.25
2023-04-15T01:29:27.380Z,82.03
2023-04-15T01:31:57.440Z,82.06
2023-04-15T01:34:26.336Z,81.99
2023-04-15T01:36:54.923Z,81.85
2023-04-15T01:39:23.569Z,81.38
2023-04-15T01:41:52.271Z,80.90
2023-04-15T01:44:22.683Z,80.82
2023-04-15T01:46:51.311Z,80.20
2023-04-15T01:49:20.063Z,80.15
2023-04-15T01:51:48.750Z,80.59
2023-04-15T01:54:17.356Z,81.00
2023-04-15T01:56:45.921Z,80.46
2023-04-15T01:59:14.631Z,80.02
2023-04-15T02:01:45.181Z,80.01
2023-04-15T02:04:16.619Z,80.24
2023-04-15T02:06:45.251Z,80.60
2023-04-15T02:09:14.036Z,80.71
2023-04-15T02:11:42.654Z,81.42
2023-04-15T02:14:11.253Z,81.72
2023-04-15T02:16:39.947Z,82.58
2023-04-15T02:19:10.024Z,82.32
2023-04-15T02:21:38.619Z,82.32
2023-04-15T02:24:07.754Z,83.04
2023-04-15T02:26:36.378Z,82.86
2023-04-15T02:29:05.120Z,82.38
2023-04-15T02:31:36.956Z,82.71
2023-04-15T02:34:05.833Z,81.92
2023-04-15T02:36:35.751Z,83.32
2023-04-15T02:39:04.497Z,83.34
2023-04-15T02:41:33.205Z,83.40
2023-04-15T02:44:03.023Z,82.59
2023-04-15T02:46:32.248Z,82.70
2023-04-15T02:49:01.234Z,82.75
2023-04-15T02:51:31.983Z,82.26
2023-04-15T02:54:01.967Z,82.59
2023-04-15T02:56:31.294Z,83.11
2023-04-15T02:59:00.050Z,82.90
2023-04-15T03:01:28.834Z,83.40
2023-04-15T03:03:57.500Z,83.16
2023-04-15T03:06:26.274Z,83.16
2023-04-15T03:08:54.859Z,82.58
2023-04-15T03:11:24.821Z,83.42
2023-04-15T03:13:53.372Z,83.90
2023-04-15T03:16:22.329Z,83.27
2023-04-15T03:18:51.061Z,83.42
2023-04-15T03:21:20.001Z,82.91
2023-04-15T03:23:49.830Z,82.42
2023-04-15T03:26:29.862Z,84.02
2023-04-15T03:28:59.084Z,83.93
2023-04-15T03:31:27.935Z,84.92
2023-04-15T03:33:56.649Z,83.73
2023-04-15T03:36:25.256Z,83.66
2023-04-15T03:38:53.987Z,83.75
2023-04-15T03:41:22.581Z,83.32
2023-04-15T03:43:52.734Z,83.35
2023-04-15T03:46:21.523Z,85.00
2023-04-15T03:48:50.180Z,86.14
2023-04-15T03:51:18.967Z,86.47
2023-04-15T03:53:47.543Z,86.67
2023-04-15T03:56:16.148Z,86.34
2023-04-15T03:58:44.853Z,85.77
2023-04-15T04:01:14.961Z,86.58
2023-04-15T04:03:43.753Z,85.73
2023-04-15T04:06:12.734Z,86.72
2023-04-15T04:08:41.433Z,86.37
2023-04-15T04:11:10.215Z,85.90
2023-04-15T04:13:38.814Z,85.30
2023-04-15T04:16:08.275Z,85.44
2023-04-15T04:18:38.407Z,85.31
2023-04-15T04:21:07.456Z,85.71
2023-04-15T04:23:36.029Z,85.62
2023-04-15T04:26:04.658Z,85.72
2023-04-15T04:28:33.366Z,86.32
2023-04-15T04:31:02.361Z,85.38
2023-04-15T04:33:31.028Z,85.65
2023-04-15T04:36:00.997Z,85.04
2023-04-15T04:38:29.520Z,85.89
2023-04-15T04:40:58.183Z,85.35
2023-04-15T04:43:27.127Z,86.24
2023-04-15T04:45:55.828Z,86.00
2023-04-15T04:48:24.534Z,85.50
2023-04-15T04:50:53.321Z,85.92
2023-04-15T04:53:23.404Z,86.31
2023-04-15T04:55:52.222Z,86.14
2023-04-15T04:58:21.388Z,85.29
2023-04-15T05:00:50.004Z,85.27
2023-04-15T05:03:19.101Z,84.90
2023-04-15T05:05:49.318Z,85.78
2023-04-15T05:08:17.982Z,86.36
2023-04-15T05:10:47.941Z,86.72
2023-04-15T05:13:16.525Z,85.46
2023-04-15T05:15:45.430Z,84.87
2023-04-15T05:18:14.061Z,84.38
2023-04-15T05:20:42.664Z,84.56
2023-04-15T05:23:11.250Z,84.61
2023-04-15T05:25:39.872Z,85.24
2023-04-15T05:28:09.829Z,86.17
2023-04-15T05:30:38.423Z,85.39
2023-04-15T05:33:07.179Z,84.15
2023-04-15T05:35:35.842Z,83.69
2023-04-15T05:38:04.433Z,84.35
2023-04-15T05:40:33.062Z,84.22
2023-04-15T05:43:01.782Z,84.09
2023-04-15T05:45:32.499Z,82.99
2023-04-15T05:48:01.213Z,83.17
2023-04-15T05:50:29.958Z,83.40
2023-04-15T05:52:58.679Z,83.25
2023-04-15T05:55:27.433Z,83.45
2023-04-15T05:57:56.039Z,84.07
2023-04-15T06:00:24.590Z,83.39
2023-04-15T06:02:54.801Z,83.55
2023-04-15T06:05:24.073Z,82.50
2023-04-15T06:07:52.760Z,80.37
2023-04-15T06:10:21.422Z,79.97
2023-04-15T06:12:50.086Z,79.27
2023-04-15T06:15:18.843Z,79.50
2023-04-15T06:17:47.543Z,79.73
2023-04-15T06:20:17.739Z,78.79
2023-04-15T06:22:46.426Z,78.15
2023-04-15T06:25:15.081Z,77.78
2023-04-15T06:27:43.910Z,77.90
2023-04-15T06:30:14.780Z,77.44
2023-04-15T06:32:43.646Z,77.91
2023-04-15T06:35:13.783Z,77.67
2023-04-15T06:37:43.730Z,77.41
2023-04-15T06:40:13.319Z,77.32
2023-04-15T06:42:41.914Z,76.14
2023-04-15T06:45:11.475Z,74.25
2023-04-15T06:47:40.821Z,73.53
2023-04-15T06:50:11.421Z,74.28
2023-04-15T06:52:40.025Z,73.68
2023-04-15T06:55:10.770Z,73.32
2023-04-15T06:57:39.526Z,73.50
2023-04-15T07:00:11.125Z,73.49
2023-04-15T07:02:39.773Z,73.43
2023-04-15T07:05:08.802Z,71.81
2023-04-15T07:07:38.271Z,72.27
2023-04-15T07:10:08.259Z,70.86
2023-04-15T07:12:38.470Z,72.38
2023-04-15T07:15:08.245Z,71.81
2023-04-15T07:17:37.094Z,73.62
2023-04-15T07:20:06.430Z,72.01
2023-04-15T07:22:35.076Z,71.59
2023-04-15T07:25:03.737Z,71.47
2023-04-15T07:27:32.478Z,71.38
2023-04-15T07:30:02.483Z,70.99
2023-04-15T07:32:31.114Z,71.23
2023-04-15T07:35:00.175Z,70.59
2023-04-15T07:37:29.618Z,70.74
2023-04-15T07:39:58.397Z,70.58
2023-04-15T07:42:27.043Z,68.92
2023-04-15T07:44:55.831Z,68.00
2023-04-15T07:47:26.333Z,67.29
2023-04-15T07:49:54.947Z,66.99
2023-04-15T07:52:23.542Z,66.03
2023-04-15T07:54:52.173Z,67.06
2023-04-15T07:57:21.063Z,64.13
2023-04-15T07:59:49.712Z,63.97
2023-04-15T08:02:18.410Z,62.28
2023-04-15T08:04:48.728Z,62.53
2023-04-15T08:07:18.082Z,61.41
2023-04-15T08:09:46.953Z,61.18
2023-04-15T08:12:15.932Z,59.77
2023-04-15T08:14:44.680Z,59.60
2023-04-15T08:17:13.375Z,59.01
2023-04-15T08:19:42.410Z,57.92
2023-04-15T08:22:18.031Z,58.21
2023-04-15T08:24:47.342Z,58.23
2023-04-15T08:27:15.970Z,57.27
2023-04-15T08:29:45.567Z,53.94
2023-04-15T08:32:14.893Z,54.14
2023-04-15T08:34:43.535Z,53.67
2023-04-15T08:37:13.627Z,53.15
2023-04-15T08:39:42.282Z,53.56
2023-04-15T08:42:13.650Z,53.99
2023-04-15T08:44:42.550Z,55.75
2023-04-15T08:47:14.188Z,52.94
2023-04-15T08:49:44.109Z,52.99
2023-04-15T08:52:14.376Z,53.80
2023-04-15T08:54:43.125Z,53.27
2023-04-15T08:57:12.001Z,51.56
2023-04-15T08:59:40.800Z,51.79
2023-04-15T09:02:09.576Z,55.17
2023-04-15T09:04:38.220Z,53.60
2023-04-15T09:07:06.852Z,53.28
2023-04-15T09:09:37.502Z,54.96
2023-04-15T09:12:06.106Z,53.88
2023-04-15T09:14:35.082Z,52.86
2023-04-15T09:17:04.951Z,51.61
2023-04-15T09:19:34.665Z,53.70
2023-04-15T09:22:03.847Z,53.66
2023-04-15T09:24:39.719Z,50.62
2023-04-15T09:27:08.852Z,52.20
2023-04-15T09:29:38.386Z,51.31
2023-04-15T09:32:14.732Z,50.48
2023-04-15T09:34:44.533Z,49.35
2023-04-15T09:37:24.497Z,49.57
2023-04-15T09:39:58.961Z,49.57
2023-04-15T09:42:29.116Z,49.08
2023-04-15T09:44:58.161Z,48.19
2023-04-15T09:47:30.460Z,47.53
2023-04-15T09:49:59.813Z,45.13
2023-04-15T09:52:29.562Z,47.48
2023-04-15T09:55:00.868Z,48.08
2023-04-15T09:57:35.609Z,46.60
2023-04-15T10:00:05.173Z,45.19
2023-04-15T10:02:37.185Z,45.72
2023-04-15T10:05:07.222Z,46.10
2023-04-15T10:07:36.147Z,47.25
2023-04-15T10:10:07.544Z,45.90
2023-04-15T10:12:38.528Z,46.36
2023-04-15T10:15:08.115Z,46.59
2023-04-15T10:17:37.289Z,46.11
2023-04-15T10:20:07.637Z,47.29
2023-04-15T10:22:36.685Z,47.62
2023-04-15T10:25:07.793Z,47.41
2023-04-15T10:27:37.250Z,46.07
2023-04-15T10:30:07.679Z,44.40
2023-04-15T10:32:36.665Z,44.54
2023-04-15T10:35:06.685Z,42.93
2023-04-15T10:37:37.388Z,43.13
2023-04-15T10:40:27.219Z,43.15
2023-04-15T10:42:56.976Z,43.28
2023-04-15T10:45:28.202Z,41.96
2023-04-15T10:47:58.168Z,44.73
2023-04-15T10:50:28.230Z,43.58
2023-04-15T10:52:57.805Z,41.93
2023-04-15T10:55:28.325Z,41.34
2023-04-15T10:58:00.865Z,42.29
2023-04-15T11:00:31.431Z,40.90
2023-04-15T11:03:01.158Z,40.84
2023-04-15T11:05:51.523Z,43.02
2023-04-15T11:08:20.973Z,43.47
2023-04-15T11:10:57.727Z,43.03
2023-04-15T11:13:28.837Z,44.54
2023-04-15T11:16:02.096Z,41.05
2023-04-15T11:18:32.864Z,41.78
2023-04-15T11:21:03.771Z,41.56
2023-04-15T11:23:34.494Z,43.82
2023-04-15T11:26:09.193Z,42.70
2023-04-15T11:28:39.196Z,41.96
2023-04-15T11:31:10.749Z,41.62
2023-04-15T11:33:45.791Z,41.94
2023-04-15T11:36:14.802Z,41.36
2023-04-15T11:38:44.277Z,43.99
2023-04-15T11:41:14.317Z,41.93
2023-04-15T11:43:43.334Z,41.43
2023-04-15T11:46:11.985Z,42.13
2023-04-15T11:48:45.232Z,41.98
2023-04-15T11:51:15.345Z,42.34
2023-04-15T11:53:46.330Z,42.60
2023-04-15T11:56:21.272Z,43.76
2023-04-15T11:58:53.690Z,42.89
2023-04-15T12:01:23.141Z,43.27
2023-04-15T12:03:52.470Z,45.12
2023-04-15T12:06:22.951Z,50.79
2023-04-15T12:09:15.681Z,51.47
2023-04-15T12:11:47.150Z,55.42
2023-04-15T12:14:23.308Z,63.12
2023-04-15T12:16:53.964Z,72.51
2023-04-15T12:19:27.631Z,64.63
2023-04-15T12:22:00.645Z,61.47
2023-04-15T12:24:32.740Z,62.53
2023-04-15T12:27:06.068Z,61.64
2023-04-15T12:29:36.735Z,55.99
2023-04-15T12:32:07.666Z,55.49
2023-04-15T12:34:37.721Z,51.18
2023-04-15T12:37:07.633Z,53.35
2023-04-15T12:39:37.233Z,55.64
2023-04-15T12:42:07.716Z,57.68
2023-04-15T12:44:36.714Z,61.56
2023-04-15T12:47:05.705Z,67.06
2023-04-15T12:49:35.579Z,72.08
2023-04-15T12:52:04.913Z,74.12
2023-04-15T12:54:34.324Z,74.14
2023-04-15T12:57:06.414Z,72.82
2023-04-15T12:59:37.482Z,74.45
2023-04-15T13:02:06.329Z,73.40
2023-04-15T13:04:35.119Z,72.64
2023-04-15T13:07:03.923Z,77.38
2023-04-15T13:09:33.414Z,79.95
2023-04-15T13:12:03.054Z,74.89
2023-04-15T13:14:32.002Z,74.06
2023-04-15T13:17:04.361Z,82.29
2023-04-15T13:19:33.433Z,84.57
2023-04-15T13:22:02.444Z,82.59
2023-04-15T13:24:31.963Z,83.05
2023-04-15T13:27:00.953Z,81.74
2023-04-15T13:29:29.562Z,80.18
2023-04-15T13:31:58.211Z,85.23
2023-04-15T13:34:28.199Z,84.15
2023-04-15T13:36:56.847Z,87.02
2023-04-15T13:39:25.561Z,85.00
2023-04-15T13:41:54.250Z,79.12
2023-04-15T13:44:23.863Z,76.80
2023-04-15T13:46:53.779Z,77.27
2023-04-15T13:49:22.497Z,78.81
2023-04-15T13:51:52.769Z,75.79
2023-04-15T13:54:21.551Z,76.36
2023-04-15T13:56:50.416Z,73.61
2023-04-15T13:59:19.165Z,74.18
2023-04-15T14:01:47.847Z,68.03
2023-04-15T14:04:16.675Z,68.00
2023-04-15T14:06:45.748Z,64.05
2023-04-15T14:09:15.774Z,56.89
2023-04-15T14:11:44.563Z,60.82
2023-04-15T14:14:15.236Z,56.62
2023-04-15T14:16:44.985Z,53.63
2023-04-15T14:19:13.614Z,53.75
2023-04-15T14:21:42.265Z,52.80
2023-04-15T14:24:11.006Z,49.26
2023-04-15T14:26:41.102Z,46.88
2023-04-15T14:29:10.392Z,48.06
2023-04-15T14:31:39.117Z,50.26
2023-04-15T14:34:10.025Z,49.46
2023-04-15T14:36:39.797Z,50.23
2023-04-15T14:39:09.596Z,47.83
2023-04-15T14:41:38.650Z,48.20
2023-04-15T14:44:11.484Z,49.51
2023-04-15T14:46:40.681Z,48.33
2023-04-15T14:49:09.483Z,48.00
2023-04-15T14:51:39.217Z,48.34
2023-04-15T14:54:09.390Z,49.21
2023-04-15T14:56:37.994Z,49.30
2023-04-15T14:59:08.156Z,49.72
2023-04-15T15:01:36.920Z,48.46
2023-04-15T15:04:05.742Z,48.13
2023-04-15T15:06:34.526Z,48.47
2023-04-15T15:09:03.558Z,50.14
2023-04-15T15:11:32.638Z,49.81
2023-04-15T15:14:01.278Z,50.20
2023-04-15T15:16:31.612Z,51.70
2023-04-15T15:19:00.301Z,51.93
2023-04-15T15:21:28.955Z,51.91
2023-04-15T15:23:57.789Z,52.27
2023-04-15T15:26:28.037Z,51.56
2023-04-15T15:28:57.355Z,54.10
2023-04-15T15:31:26.017Z,54.07
2023-04-15T15:33:55.986Z,54.86
2023-04-15T15:36:24.641Z,54.46
2023-04-15T15:38:53.256Z,55.63
2023-04-15T15:41:22.223Z,55.66
2023-04-15T15:43:50.946Z,56.38
2023-04-15T15:46:19.684Z,55.98
2023-04-15T15:48:48.678Z,58.10
2023-04-15T15:51:18.644Z,57.49
2023-04-15T15:53:47.268Z,58.49
2023-04-15T15:56:15.962Z,58.55
2023-04-15T15:58:45.052Z,59.58
2023-04-15T16:01:13.856Z,58.45
2023-04-15T16:03:42.922Z,60.91
2023-04-15T16:06:11.658Z,61.13
2023-04-15T16:08:41.618Z,61.22
2023-04-15T16:11:10.335Z,58.51
2023-04-15T16:13:38.976Z,58.46
2023-04-15T16:16:08.125Z,61.48
2023-04-15T16:18:36.764Z,63.13
2023-04-15T16:21:06.312Z,65.11
2023-04-15T16:23:35.080Z,65.96
2023-04-15T16:26:05.164Z,67.62
2023-04-15T16:28:33.853Z,69.93
2023-04-15T16:31:02.857Z,70.16
2023-04-15T16:33:31.888Z,71.43
2023-04-15T16:36:01.132Z,72.49
2023-04-15T16:38:30.516Z,74.96
2023-04-15T16:41:01.172Z,74.47
2023-04-15T16:43:31.642Z,76.61
2023-04-15T16:46:02.276Z,79.67
2023-04-15T16:48:31.275Z,82.05
2023-04-15T16:51:00.717Z,81.25
2023-04-15T16:53:30.251Z,83.63
2023-04-15T16:55:59.292Z,83.98
2023-04-15T16:58:28.936Z,84.58
2023-04-15T17:00:59.831Z,85.99
2023-04-15T17:03:29.261Z,87.54
2023-04-15T17:05:58.491Z,85.02
2023-04-15T17:08:27.652Z,84.25
2023-04-15T17:10:56.694Z,85.94
2023-04-15T17:13:27.098Z,87.61
2023-04-15T17:15:56.163Z,87.39
2023-04-15T17:18:26.675Z,85.58
2023-04-15T17:20:56.440Z,88.77
2023-04-15T17:23:26.144Z,87.03
2023-04-15T17:25:55.311Z,88.32
2023-04-15T17:28:24.009Z,87.90
2023-04-15T17:30:52.733Z,88.90
2023-04-15T17:33:56.410Z,89.32
2023-04-15T17:36:11.575Z,89.30
2023-04-15T17:38:40.190Z,89.57
2023-04-15T17:41:08.818Z,90.95
2023-04-15T17:43:37.447Z,91.75
2023-04-15T17:46:07.676Z,90.55
2023-04-15T17:48:36.295Z,92.38
2023-04-15T17:51:04.876Z,93.43
2023-04-15T17:53:34.901Z,94.77
2023-04-15T17:56:03.573Z,93.04
2023-04-15T17:58:32.367Z,92.95
2023-04-15T18:01:01.019Z,93.56
2023-04-15T18:03:29.872Z,93.20
2023-04-15T18:05:59.470Z,95.42
2023-04-15T18:08:28.464Z,94.32
2023-04-15T18:10:58.496Z,92.78
2023-04-15T18:13:27.139Z,94.17
2023-04-15T18:15:56.516Z,93.14
2023-04-15T18:18:25.170Z,94.25
2023-04-15T18:20:53.738Z,93.60
2023-04-15T18:23:22.452Z,93.73
2023-04-15T18:25:51.100Z,95.60
2023-04-15T18:28:22.559Z,95.68
2023-04-15T18:30:51.290Z,93.70
2023-04-15T18:33:20.924Z,94.47
2023-04-15T18:35:50.096Z,93.87
2023-04-15T18:38:18.885Z,95.93
2023-04-15T18:40:48.089Z,95.14
2023-04-15T18:43:16.856Z,95.92
2023-04-15T18:45:47.034Z,98.36
2023-04-15T18:48:15.968Z,96.98
2023-04-15T18:50:44.647Z,97.28
2023-04-15T18:53:13.278Z,97.58
2023-04-15T18:55:42.015Z,97.99
2023-04-15T18:58:10.909Z,99.27
2023-04-15T19:00:41.741Z,99.12
2023-04-15T19:03:12.245Z,99.13
2023-04-15T19:05:42.166Z,99.40
2023-04-15T19:08:11.651Z,100.00
2023-04-15T19:10:40.444Z,100.00
2023-04-15T19:13:09.196Z,100.00
2023-04-15T19:15:37.836Z,100.00
2023-04-15T19:18:10.478Z,100.00
2023-04-15T19:20:40.980Z,100.00
2023-04-15T19:23:09.636Z,100.00
2023-04-15T19:25:39.189Z,100.00
2023-04-15T19:28:08.098Z,100.00
2023-04-15T19:30:37.010Z,100.00
2023-04-15T19:33:06.457Z,100.00
2023-04-15T19:35:36.072Z,100.00
2023-04-15T19:38:07.983Z,100.00
2023-04-15T19:40:36.638Z,99.46
2023-04-15T19:43:05.324Z,100.00
2023-04-15T19:45:35.299Z,100.00
2023-04-15T19:48:04.070Z,100.00
2023-04-15T19:50:33.088Z,100.00
2023-04-15T19:53:01.704Z,100.00
2023-04-15T19:55:31.700Z,100.00
2023-04-15T19:58:00.653Z,100.00
2023-04-15T20:00:29.335Z,100.00
2023-04-15T20:02:58.114Z,100.00
2023-04-15T20:05:26.892Z,100.00
2023-04-15T20:07:55.882Z,100.00
2023-04-15T20:10:25.557Z,100.00
2023-04-15T20:12:55.560Z,100.00
2023-04-15T20:15:24.411Z,100.00
2023-04-15T20:17:53.132Z,100.00
2023-04-15T20:20:22.134Z,100.00
2023-04-15T20:22:52.637Z,100.00
2023-04-15T20:25:21.367Z,100.00
2023-04-15T20:27:50.406Z,100.00
2023-04-15T20:30:23.153Z,100.00
2023-04-15T20:32:51.990Z,100.00
2023-04-15T20:35:20.828Z,100.00
2023-04-15T20:37:50.030Z,100.00
2023-04-15T20:40:18.700Z,100.00
2023-04-15T20:42:47.328Z,100.00
2023-04-15T20:45:16.100Z,100.00
2023-04-15T20:47:46.285Z,100.00
2023-04-15T20:50:15.019Z,100.00
2023-04-15T20:52:43.738Z,100.00
2023-04-15T20:55:12.450Z,100.00
2023-04-15T20:57:41.179Z,100.00
2023-04-15T21:00:11.110Z,100.00
2023-04-15T21:02:39.860Z,100.00
2023-04-15T21:05:10.521Z,100.00
2023-04-15T21:07:39.125Z,100.00
2023-04-15T21:10:08.539Z,100.00
2023-04-15T21:12:37.735Z,100.00
2023-04-15T21:15:07.182Z,100.00
2023-04-15T21:17:36.232Z,100.00
2023-04-15T21:20:05.482Z,100.00
2023-04-15T21:22:35.507Z,100.00
2023-04-15T21:25:04.320Z,100.00
2023-04-15T21:27:33.118Z,100.00
2023-04-15T21:30:01.741Z,100.00
2023-04-15T21:32:30.711Z,100.00
2023-04-15T21:34:59.747Z,100.00
2023-04-15T21:37:28.351Z,100.00
2023-04-15T21:39:58.349Z,100.00
2023-04-15T21:42:27.290Z,100.00
2023-04-15T21:44:56.015Z,100.00
2023-04-15T21:47:24.714Z,100.00
2023-04-15T21:49:53.439Z,100.00
2023-04-15T21:52:22.032Z,100.00
2023-04-15T21:54:50.685Z,100.00
2023-04-15T21:57:20.612Z,100.00
2023-04-15T21:59:49.301Z,100.00
2023-04-15T22:02:18.015Z,100.00
2023-04-15T22:04:46.705Z,100.00
2023-04-15T22:07:15.519Z,100.00
2023-04-15T22:09:44.226Z,100.00
2023-04-15T22:12:12.861Z,100.00
2023-04-15T22:14:42.828Z,100.00
2023-04-15T22:17:11.531Z,100.00
2023-04-15T22:19:41.090Z,100.00
2023-04-15T22:22:09.768Z,100.00
2023-04-15T22:24:40.043Z,100.00
2023-04-15T22:27:09.414Z,100.00
2023-04-15T22:29:38.042Z,100.00
2023-04-15T22:32:08.187Z,100.00
2023-04-15T22:34:36.805Z,100.00
2023-04-15T22:37:05.532Z,100.00
2023-04-15T22:39:34.237Z,100.00
2023-04-15T22:42:03.192Z,100.00
2023-04-15T22:44:31.830Z,100.00
2023-04-15T22:47:00.551Z,100.00
2023-04-15T22:49:30.510Z,100.00
2023-04-15T22:51:59.183Z,100.00
2023-04-15T22:54:27.801Z,100.00
2023-04-15T22:56:56.423Z,100.00
2023-04-15T22:59:25.266Z,100.00
2023-04-15T23:01:54.306Z,100.00
2023-04-15T23:04:26.948Z,100.00
2023-04-15T23:06:57.901Z,100.00
2023-04-15T23:09:27.217Z,100.00
2023-04-15T23:11:56.579Z,100.00
2023-04-15T23:14:26.169Z,100.00
2023-04-15T23:16:54.998Z,100.00
2023-04-15T23:19:23.723Z,100.00
2023-04-15T23:21:52.363Z,100.00
2023-04-15T23:24:22.282Z,100.00
2023-04-15T23:26:52.863Z,100.00
2023-04-15T23:29:21.448Z,100.00
2023-04-15T23:31:50.069Z,100.00
2023-04-15T23:34:19.012Z,100.00
2023-04-15T23:36:47.757Z,100.00
2023-04-15T23:39:16.420Z,100.00
2023-04-15T23:41:46.416Z,100.00
2023-04-15T23:44:14.965Z,100.00
2023-04-15T23:46:43.639Z,100.00
2023-04-15T23:49:12.380Z,100.00
2023-04-15T23:51:41.058Z,100.00
2023-04-15T23:54:09.713Z,100.00
2023-04-15T23:56:38.276Z,100.00
2023-04-15T23:59:08.494Z,100.00
